Date,TemperatureHighF,TemperatureAvgF,TemperatureLowF,DewpointHighF,DewpointAvgF,DewpointLowF,HumidityHigh,HumidityAvg,HumidityLow,PressureMaxIn,PressureMinIn,WindSpeedMaxMPH,WindSpeedAvgMPH,GustSpeedMaxMPH,PrecipitationSumIn
2013-1-1,36.1,30.0,26.4,33.3,28.0,24.8,94,92,86,30.48,30.35,10,2,10,0.09
2013-1-2,44.3,36.1,29.1,27.5,24.0,20.5,92,62,47,30.35,30.19,16,4,16,0.00
2013-1-3,40.6,34.5,30.1,36.2,24.6,20.3,94,68,50,30.24,30.12,28,7,28,0.00
2013-1-4,40.1,35.0,31.3,38.8,33.6,29.8,100,95,93,30.36,30.18,16,4,16,0.01
2013-1-5,34.6,33.1,31.3,31.7,29.9,28.1,95,88,84,30.22,30.16,17,8,17,0.00
2013-1-6,41.2,37.4,32.0,39.5,35.9,29.9,100,94,92,30.25,30.05,27,9,27,0.38
2013-1-7,47.8,43.8,40.9,46.4,42.5,39.3,96,95,94,30.20,29.96,27,9,27,0.42
2013-1-8,49.4,46.3,42.6,47.4,44.8,41.3,96,94,86,30.19,29.87,29,15,29,0.15
2013-1-9,49.1,39.5,33.4,44.9,37.2,31.9,94,91,84,29.98,29.67,28,8,28,0.53
2013-1-10,35.2,33.8,32.1,33.9,32.5,30.8,95,95,94,30.10,29.98,6,1,6,0.04
2013-1-11,37.9,31.5,27.8,33.2,28.6,25.9,95,89,72,30.32,30.10,9,1,9,0.07
2013-1-12,32.6,28.0,24.7,30.7,26.1,22.9,94,92,89,30.41,30.30,5,1,5,0.00
2013-1-13,27.9,25.1,23.0,25.9,23.4,21.3,94,93,91,30.51,30.40,7,1,7,0.00
2013-1-14,30.8,27.5,24.7,29.5,26.0,23.2,95,94,94,30.57,30.49,12,4,12,0.00
2013-1-15,32.6,31.5,30.7,31.3,30.2,29.4,95,95,95,30.67,30.57,7,2,7,0.04
2013-1-16,32.8,30.9,29.6,31.5,29.6,28.3,95,95,95,30.66,30.50,5,1,5,0.00
2013-1-17,34.4,30.9,28.0,33.3,29.7,26.8,96,95,95,30.50,30.32,12,2,12,0.01
2013-1-18,42.5,34.3,28.4,37.7,32.0,26.8,95,91,82,30.33,30.27,9,2,9,0.00
2013-1-19,45.9,34.8,27.2,39.4,32.0,25.3,94,90,76,30.34,30.26,4,0,4,0.01
2013-1-20,38.7,30.7,24.5,35.2,28.1,23.0,95,90,75,30.37,30.25,7,1,7,0.00
2013-1-21,40.7,32.2,27.2,32.9,26.9,24.1,92,81,65,30.28,30.16,14,7,14,0.00
2013-1-22,36.4,31.1,27.0,28.5,25.3,23.3,86,79,69,30.17,29.95,16,8,16,0.00
2013-1-23,34.4,31.8,30.0,31.1,27.4,24.1,94,84,67,30.22,29.89,17,6,17,0.06
2013-1-24,43.2,35.9,32.0,41.7,34.5,30.5,95,95,93,30.25,30.10,26,5,26,0.26
2013-1-25,45.8,43.6,40.3,44.4,42.2,38.8,95,95,93,30.12,29.94,22,7,22,0.04
2013-1-26,40.9,39.1,37.5,39.6,37.6,35.9,95,94,92,30.08,29.91,24,6,24,0.17
2013-1-27,38.4,37.1,35.5,37.1,35.8,33.9,95,95,94,30.14,30.04,16,4,16,0.29
2013-1-28,39.3,38.4,36.8,38.0,37.1,35.5,95,95,95,30.19,30.07,12,2,12,0.93
2013-1-29,43.6,42.3,39.3,42.4,41.1,37.9,96,96,95,30.46,30.19,17,4,17,0.30
2013-1-30,45.4,44.3,41.3,44.3,43.2,40.2,96,96,96,30.44,30.41,16,3,16,0.47
2013-1-31,46.2,44.4,41.8,45.0,43.2,40.7,96,96,94,30.45,30.33,10,2,10,0.07